sensor_id;sensor_type;location;lat;lon;timestamp;P1;durP1;ratioP1;P2;durP2;ratioP2
30307;SDS011;17114;52.314;8.910;2023-04-25T00:00:18;20.90;;;7.60;;
30307;SDS011;17114;52.314;8.910;2023-04-25T00:02:45;26.38;;;7.55;;
30307;SDS011;17114;52.314;8.910;2023-04-25T00:05:12;19.52;;;7.78;;
30307;SDS011;17114;52.314;8.910;2023-04-25T00:07:41;29.25;;;7.60;;
30307;SDS011;17114;52.314;8.910;2023-04-25T00:10:09;23.65;;;6.95;;
30307;SDS011;17114;52.314;8.910;2023-04-25T00:12:37;21.98;;;7.78;;
30307;SDS011;17114;52.314;8.910;2023-04-25T00:15:06;23.60;;;7.60;;
30307;SDS011;17114;52.314;8.910;2023-04-25T00:17:33;23.90;;;7.82;;
30307;SDS011;17114;52.314;8.910;2023-04-25T00:20:01;23.83;;;7.68;;
30307;SDS011;17114;52.314;8.910;2023-04-25T00:22:31;23.13;;;8.60;;
30307;SDS011;17114;52.314;8.910;2023-04-25T00:25:00;28.92;;;8.48;;
30307;SDS011;17114;52.314;8.910;2023-04-25T00:27:27;24.30;;;7.80;;
30307;SDS011;17114;52.314;8.910;2023-04-25T00:29:53;22.33;;;7.68;;
30307;SDS011;17114;52.314;8.910;2023-04-25T00:32:20;19.77;;;7.20;;
30307;SDS011;17114;52.314;8.910;2023-04-25T00:34:47;26.48;;;8.40;;
30307;SDS011;17114;52.314;8.910;2023-04-25T00:37:14;22.73;;;7.85;;
30307;SDS011;17114;52.314;8.910;2023-04-25T00:39:41;20.50;;;7.75;;
30307;SDS011;17114;52.314;8.910;2023-04-25T00:42:08;24.00;;;7.65;;
30307;SDS011;17114;52.314;8.910;2023-04-25T00:44:35;22.55;;;7.45;;
30307;SDS011;17114;52.314;8.910;2023-04-25T00:47:02;21.95;;;7.45;;
30307;SDS011;17114;52.314;8.910;2023-04-25T00:49:30;28.23;;;9.52;;
30307;SDS011;17114;52.314;8.910;2023-04-25T00:51:57;18.65;;;7.65;;
30307;SDS011;17114;52.314;8.910;2023-04-25T00:54:24;24.05;;;9.13;;
30307;SDS011;17114;52.314;8.910;2023-04-25T00:56:52;30.52;;;8.60;;
30307;SDS011;17114;52.314;8.910;2023-04-25T00:59:19;21.10;;;9.60;;
30307;SDS011;17114;52.314;8.910;2023-04-25T01:01:46;23.67;;;9.23;;
30307;SDS011;17114;52.314;8.910;2023-04-25T01:04:13;24.65;;;9.45;;
30307;SDS011;17114;52.314;8.910;2023-04-25T01:06:41;28.15;;;8.82;;
30307;SDS011;17114;52.314;8.910;2023-04-25T01:09:08;21.90;;;9.25;;
30307;SDS011;17114;52.314;8.910;2023-04-25T01:11:35;25.25;;;10.10;;
30307;SDS011;17114;52.314;8.910;2023-04-25T01:14:02;25.92;;;11.27;;
30307;SDS011;17114;52.314;8.910;2023-04-25T01:16:29;24.92;;;9.90;;
30307;SDS011;17114;52.314;8.910;2023-04-25T01:18:57;32.28;;;10.05;;
30307;SDS011;17114;52.314;8.910;2023-04-25T01:21:24;24.33;;;9.63;;
30307;SDS011;17114;52.314;8.910;2023-04-25T01:23:53;29.85;;;9.82;;
30307;SDS011;17114;52.314;8.910;2023-04-25T01:26:21;21.88;;;9.93;;
30307;SDS011;17114;52.314;8.910;2023-04-25T01:28:50;25.63;;;9.88;;
30307;SDS011;17114;52.314;8.910;2023-04-25T01:31:21;22.90;;;9.98;;
30307;SDS011;17114;52.314;8.910;2023-04-25T01:33:48;29.42;;;10.90;;
30307;SDS011;17114;52.314;8.910;2023-04-25T01:36:15;24.02;;;10.07;;
30307;SDS011;17114;52.314;8.910;2023-04-25T01:38:42;25.02;;;10.43;;
30307;SDS011;17114;52.314;8.910;2023-04-25T01:41:10;28.65;;;8.73;;
30307;SDS011;17114;52.314;8.910;2023-04-25T01:43:37;28.65;;;8.75;;
30307;SDS011;17114;52.314;8.910;2023-04-25T01:46:04;25.02;;;7.57;;
30307;SDS011;17114;52.314;8.910;2023-04-25T01:48:31;29.13;;;7.18;;
30307;SDS011;17114;52.314;8.910;2023-04-25T01:50:58;32.22;;;7.25;;
30307;SDS011;17114;52.314;8.910;2023-04-25T01:53:25;23.67;;;6.78;;
30307;SDS011;17114;52.314;8.910;2023-04-25T01:55:52;46.72;;;7.90;;
30307;SDS011;17114;52.314;8.910;2023-04-25T01:58:19;21.48;;;6.47;;
30307;SDS011;17114;52.314;8.910;2023-04-25T02:00:46;34.08;;;7.68;;
30307;SDS011;17114;52.314;8.910;2023-04-25T02:03:13;28.67;;;6.80;;
30307;SDS011;17114;52.314;8.910;2023-04-25T02:05:40;22.73;;;6.57;;
30307;SDS011;17114;52.314;8.910;2023-04-25T02:08:08;21.92;;;7.00;;
30307;SDS011;17114;52.314;8.910;2023-04-25T02:10:35;29.45;;;6.65;;
30307;SDS011;17114;52.314;8.910;2023-04-25T02:13:02;26.88;;;6.32;;
30307;SDS011;17114;52.314;8.910;2023-04-25T02:15:31;34.63;;;6.60;;
30307;SDS011;17114;52.314;8.910;2023-04-25T02:17:58;23.75;;;5.63;;
30307;SDS011;17114;52.314;8.910;2023-04-25T02:20:26;28.17;;;6.30;;
30307;SDS011;17114;52.314;8.910;2023-04-25T02:22:54;34.58;;;7.55;;
30307;SDS011;17114;52.314;8.910;2023-04-25T02:25:21;23.08;;;6.80;;
30307;SDS011;17114;52.314;8.910;2023-04-25T02:27:48;34.72;;;7.35;;
30307;SDS011;17114;52.314;8.910;2023-04-25T02:30:16;28.33;;;6.60;;
30307;SDS011;17114;52.314;8.910;2023-04-25T02:32:43;27.80;;;5.82;;
30307;SDS011;17114;52.314;8.910;2023-04-25T02:35:11;39.55;;;7.75;;
30307;SDS011;17114;52.314;8.910;2023-04-25T02:37:38;33.33;;;6.70;;
30307;SDS011;17114;52.314;8.910;2023-04-25T02:40:06;29.23;;;6.15;;
30307;SDS011;17114;52.314;8.910;2023-04-25T02:42:34;29.95;;;7.55;;
30307;SDS011;17114;52.314;8.910;2023-04-25T02:45:01;34.75;;;8.07;;
30307;SDS011;17114;52.314;8.910;2023-04-25T02:47:29;32.58;;;7.22;;
30307;SDS011;17114;52.314;8.910;2023-04-25T02:49:56;31.70;;;6.60;;
30307;SDS011;17114;52.314;8.910;2023-04-25T02:52:23;32.00;;;7.28;;
30307;SDS011;17114;52.314;8.910;2023-04-25T02:54:51;27.60;;;6.28;;
30307;SDS011;17114;52.314;8.910;2023-04-25T02:57:17;36.92;;;7.10;;
30307;SDS011;17114;52.314;8.910;2023-04-25T02:59:44;30.98;;;6.63;;
30307;SDS011;17114;52.314;8.910;2023-04-25T03:02:11;31.38;;;6.97;;
30307;SDS011;17114;52.314;8.910;2023-04-25T03:04:38;25.83;;;6.63;;
30307;SDS011;17114;52.314;8.910;2023-04-25T03:07:06;33.75;;;7.75;;
30307;SDS011;17114;52.314;8.910;2023-04-25T03:09:33;33.83;;;6.80;;
30307;SDS011;17114;52.314;8.910;2023-04-25T03:12:00;38.42;;;7.60;;
30307;SDS011;17114;52.314;8.910;2023-04-25T03:14:27;38.92;;;7.57;;
30307;SDS011;17114;52.314;8.910;2023-04-25T03:16:54;32.40;;;7.25;;
30307;SDS011;17114;52.314;8.910;2023-04-25T03:19:21;36.63;;;7.65;;
30307;SDS011;17114;52.314;8.910;2023-04-25T03:21:48;35.80;;;7.47;;
30307;SDS011;17114;52.314;8.910;2023-04-25T03:24:15;36.25;;;8.25;;
30307;SDS011;17114;52.314;8.910;2023-04-25T03:26:42;28.05;;;7.45;;
30307;SDS011;17114;52.314;8.910;2023-04-25T03:29:09;34.08;;;7.95;;
30307;SDS011;17114;52.314;8.910;2023-04-25T03:31:35;46.50;;;9.75;;
30307;SDS011;17114;52.314;8.910;2023-04-25T03:34:02;40.00;;;7.50;;
30307;SDS011;17114;52.314;8.910;2023-04-25T03:36:29;43.13;;;7.43;;
30307;SDS011;17114;52.314;8.910;2023-04-25T03:38:56;32.22;;;7.18;;
30307;SDS011;17114;52.314;8.910;2023-04-25T03:41:23;29.02;;;7.47;;
30307;SDS011;17114;52.314;8.910;2023-04-25T03:43:51;40.53;;;8.10;;
30307;SDS011;17114;52.314;8.910;2023-04-25T03:46:18;34.60;;;6.82;;
30307;SDS011;17114;52.314;8.910;2023-04-25T03:48:45;29.58;;;7.25;;
30307;SDS011;17114;52.314;8.910;2023-04-25T03:51:12;29.27;;;7.22;;
30307;SDS011;17114;52.314;8.910;2023-04-25T03:53:39;34.95;;;6.97;;
30307;SDS011;17114;52.314;8.910;2023-04-25T03:56:06;33.10;;;7.13;;
30307;SDS011;17114;52.314;8.910;2023-04-25T03:58:33;36.45;;;7.70;;
30307;SDS011;17114;52.314;8.910;2023-04-25T04:00:59;38.40;;;6.53;;
30307;SDS011;17114;52.314;8.910;2023-04-25T04:03:29;42.13;;;7.07;;
30307;SDS011;17114;52.314;8.910;2023-04-25T04:05:56;26.48;;;6.57;;
30307;SDS011;17114;52.314;8.910;2023-04-25T04:08:23;30.55;;;6.30;;
30307;SDS011;17114;52.314;8.910;2023-04-25T04:10:50;31.77;;;6.90;;
30307;SDS011;17114;52.314;8.910;2023-04-25T04:13:17;38.63;;;6.88;;
30307;SDS011;17114;52.314;8.910;2023-04-25T04:15:43;38.03;;;7.80;;
30307;SDS011;17114;52.314;8.910;2023-04-25T04:18:10;30.55;;;6.63;;
30307;SDS011;17114;52.314;8.910;2023-04-25T04:20:37;26.40;;;6.78;;
30307;SDS011;17114;52.314;8.910;2023-04-25T04:23:04;35.35;;;6.10;;
30307;SDS011;17114;52.314;8.910;2023-04-25T04:25:31;24.65;;;5.90;;
30307;SDS011;17114;52.314;8.910;2023-04-25T04:27:58;34.40;;;6.63;;
30307;SDS011;17114;52.314;8.910;2023-04-25T04:30:27;32.88;;;6.60;;
30307;SDS011;17114;52.314;8.910;2023-04-25T04:32:57;32.22;;;6.45;;
30307;SDS011;17114;52.314;8.910;2023-04-25T04:35:24;42.45;;;7.13;;
30307;SDS011;17114;52.314;8.910;2023-04-25T04:37:51;29.92;;;7.10;;
30307;SDS011;17114;52.314;8.910;2023-04-25T04:40:18;33.00;;;5.72;;
30307;SDS011;17114;52.314;8.910;2023-04-25T04:42:45;27.15;;;5.78;;
30307;SDS011;17114;52.314;8.910;2023-04-25T04:45:12;33.10;;;6.72;;
30307;SDS011;17114;52.314;8.910;2023-04-25T04:47:39;30.73;;;6.18;;
30307;SDS011;17114;52.314;8.910;2023-04-25T04:50:06;28.33;;;6.03;;
30307;SDS011;17114;52.314;8.910;2023-04-25T04:52:37;25.30;;;6.10;;
30307;SDS011;17114;52.314;8.910;2023-04-25T04:55:04;26.23;;;5.63;;
30307;SDS011;17114;52.314;8.910;2023-04-25T04:57:32;32.67;;;7.72;;
30307;SDS011;17114;52.314;8.910;2023-04-25T04:59:59;28.38;;;5.80;;
30307;SDS011;17114;52.314;8.910;2023-04-25T05:02:26;26.92;;;5.22;;
30307;SDS011;17114;52.314;8.910;2023-04-25T05:04:55;29.45;;;6.15;;
30307;SDS011;17114;52.314;8.910;2023-04-25T05:07:23;33.65;;;5.93;;
30307;SDS011;17114;52.314;8.910;2023-04-25T05:09:49;24.70;;;6.45;;
30307;SDS011;17114;52.314;8.910;2023-04-25T05:12:16;29.35;;;6.80;;
30307;SDS011;17114;52.314;8.910;2023-04-25T05:14:43;27.33;;;5.63;;
30307;SDS011;17114;52.314;8.910;2023-04-25T05:17:10;36.67;;;6.38;;
30307;SDS011;17114;52.314;8.910;2023-04-25T05:19:37;25.38;;;6.07;;
30307;SDS011;17114;52.314;8.910;2023-04-25T05:22:05;30.05;;;5.85;;
30307;SDS011;17114;52.314;8.910;2023-04-25T05:24:32;29.30;;;6.88;;
30307;SDS011;17114;52.314;8.910;2023-04-25T05:26:59;29.88;;;6.22;;
30307;SDS011;17114;52.314;8.910;2023-04-25T05:29:26;25.80;;;6.55;;
30307;SDS011;17114;52.314;8.910;2023-04-25T05:31:52;32.28;;;6.15;;
30307;SDS011;17114;52.314;8.910;2023-04-25T05:34:19;27.08;;;7.10;;
30307;SDS011;17114;52.314;8.910;2023-04-25T05:36:46;32.00;;;6.40;;
30307;SDS011;17114;52.314;8.910;2023-04-25T05:39:15;27.10;;;7.13;;
30307;SDS011;17114;52.314;8.910;2023-04-25T05:41:45;25.00;;;6.18;;
30307;SDS011;17114;52.314;8.910;2023-04-25T05:44:12;32.55;;;6.40;;
30307;SDS011;17114;52.314;8.910;2023-04-25T05:46:39;32.58;;;6.13;;
30307;SDS011;17114;52.314;8.910;2023-04-25T05:49:06;24.30;;;6.00;;
30307;SDS011;17114;52.314;8.910;2023-04-25T05:51:33;23.33;;;5.97;;
30307;SDS011;17114;52.314;8.910;2023-04-25T05:54:00;30.52;;;5.95;;
30307;SDS011;17114;52.314;8.910;2023-04-25T05:56:26;27.13;;;6.15;;
30307;SDS011;17114;52.314;8.910;2023-04-25T05:58:53;31.38;;;6.45;;
30307;SDS011;17114;52.314;8.910;2023-04-25T06:01:22;32.03;;;5.80;;
30307;SDS011;17114;52.314;8.910;2023-04-25T06:03:49;28.58;;;5.18;;
30307;SDS011;17114;52.314;8.910;2023-04-25T06:06:18;32.13;;;6.40;;
30307;SDS011;17114;52.314;8.910;2023-04-25T06:08:45;26.95;;;5.75;;
30307;SDS011;17114;52.314;8.910;2023-04-25T06:11:12;24.63;;;5.68;;
30307;SDS011;17114;52.314;8.910;2023-04-25T06:13:39;31.17;;;6.07;;
30307;SDS011;17114;52.314;8.910;2023-04-25T06:16:06;27.25;;;5.32;;
30307;SDS011;17114;52.314;8.910;2023-04-25T06:18:33;25.38;;;5.65;;
30307;SDS011;17114;52.314;8.910;2023-04-25T06:21:01;25.92;;;5.47;;
30307;SDS011;17114;52.314;8.910;2023-04-25T06:23:28;17.48;;;4.30;;
30307;SDS011;17114;52.314;8.910;2023-04-25T06:25:55;19.05;;;4.50;;
30307;SDS011;17114;52.314;8.910;2023-04-25T06:28:22;31.48;;;4.78;;
30307;SDS011;17114;52.314;8.910;2023-04-25T06:30:50;18.65;;;4.50;;
30307;SDS011;17114;52.314;8.910;2023-04-25T06:33:17;28.92;;;4.75;;
30307;SDS011;17114;52.314;8.910;2023-04-25T06:35:44;26.95;;;4.78;;
30307;SDS011;17114;52.314;8.910;2023-04-25T06:38:11;24.35;;;5.45;;
30307;SDS011;17114;52.314;8.910;2023-04-25T06:40:38;20.63;;;4.43;;
30307;SDS011;17114;52.314;8.910;2023-04-25T06:43:05;25.00;;;4.82;;
30307;SDS011;17114;52.314;8.910;2023-04-25T06:45:32;22.70;;;4.22;;
30307;SDS011;17114;52.314;8.910;2023-04-25T06:47:59;22.95;;;5.00;;
30307;SDS011;17114;52.314;8.910;2023-04-25T06:50:26;22.30;;;4.32;;
30307;SDS011;17114;52.314;8.910;2023-04-25T06:52:53;19.83;;;3.88;;
30307;SDS011;17114;52.314;8.910;2023-04-25T06:55:20;23.58;;;3.95;;
30307;SDS011;17114;52.314;8.910;2023-04-25T06:57:47;21.30;;;5.30;;
30307;SDS011;17114;52.314;8.910;2023-04-25T07:00:14;17.42;;;3.95;;
30307;SDS011;17114;52.314;8.910;2023-04-25T07:02:41;18.55;;;4.30;;
30307;SDS011;17114;52.314;8.910;2023-04-25T07:05:10;17.13;;;3.67;;
30307;SDS011;17114;52.314;8.910;2023-04-25T07:07:37;22.85;;;3.90;;
30307;SDS011;17114;52.314;8.910;2023-04-25T07:10:04;18.48;;;3.85;;
30307;SDS011;17114;52.314;8.910;2023-04-25T07:12:31;20.70;;;4.60;;
30307;SDS011;17114;52.314;8.910;2023-04-25T07:14:58;23.42;;;4.63;;
30307;SDS011;17114;52.314;8.910;2023-04-25T07:17:25;17.42;;;4.47;;
30307;SDS011;17114;52.314;8.910;2023-04-25T07:19:52;22.45;;;4.63;;
30307;SDS011;17114;52.314;8.910;2023-04-25T07:22:19;21.42;;;4.05;;
30307;SDS011;17114;52.314;8.910;2023-04-25T07:24:46;15.38;;;4.00;;
30307;SDS011;17114;52.314;8.910;2023-04-25T07:27:14;21.20;;;4.38;;
30307;SDS011;17114;52.314;8.910;2023-04-25T07:29:41;22.08;;;4.68;;
30307;SDS011;17114;52.314;8.910;2023-04-25T07:32:08;24.50;;;5.43;;
30307;SDS011;17114;52.314;8.910;2023-04-25T07:34:37;15.45;;;3.88;;
30307;SDS011;17114;52.314;8.910;2023-04-25T07:37:04;24.20;;;3.80;;
30307;SDS011;17114;52.314;8.910;2023-04-25T07:39:31;28.42;;;3.60;;
30307;SDS011;17114;52.314;8.910;2023-04-25T07:41:58;23.20;;;3.78;;
30307;SDS011;17114;52.314;8.910;2023-04-25T07:44:26;20.00;;;3.58;;
30307;SDS011;17114;52.314;8.910;2023-04-25T07:46:53;15.00;;;3.40;;
30307;SDS011;17114;52.314;8.910;2023-04-25T07:49:20;16.10;;;3.70;;
30307;SDS011;17114;52.314;8.910;2023-04-25T07:51:47;21.17;;;3.72;;
30307;SDS011;17114;52.314;8.910;2023-04-25T07:54:14;19.05;;;3.92;;
30307;SDS011;17114;52.314;8.910;2023-04-25T07:56:42;18.70;;;4.15;;
30307;SDS011;17114;52.314;8.910;2023-04-25T07:59:18;13.85;;;4.05;;
30307;SDS011;17114;52.314;8.910;2023-04-25T08:01:46;14.45;;;2.97;;
30307;SDS011;17114;52.314;8.910;2023-04-25T08:04:12;20.15;;;4.05;;
30307;SDS011;17114;52.314;8.910;2023-04-25T08:06:40;18.08;;;3.53;;
30307;SDS011;17114;52.314;8.910;2023-04-25T08:09:08;16.55;;;3.47;;
30307;SDS011;17114;52.314;8.910;2023-04-25T08:11:35;22.77;;;3.50;;
30307;SDS011;17114;52.314;8.910;2023-04-25T08:14:03;20.88;;;3.70;;
30307;SDS011;17114;52.314;8.910;2023-04-25T08:16:30;14.07;;;3.15;;
30307;SDS011;17114;52.314;8.910;2023-04-25T08:18:57;18.17;;;3.28;;
30307;SDS011;17114;52.314;8.910;2023-04-25T08:21:25;19.08;;;3.53;;
30307;SDS011;17114;52.314;8.910;2023-04-25T08:23:53;8.20;;;2.30;;
30307;SDS011;17114;52.314;8.910;2023-04-25T08:26:20;15.73;;;3.08;;
30307;SDS011;17114;52.314;8.910;2023-04-25T08:28:47;19.40;;;2.97;;
30307;SDS011;17114;52.314;8.910;2023-04-25T08:31:14;18.27;;;3.50;;
30307;SDS011;17114;52.314;8.910;2023-04-25T08:33:41;16.05;;;3.58;;
30307;SDS011;17114;52.314;8.910;2023-04-25T08:36:08;13.57;;;2.67;;
30307;SDS011;17114;52.314;8.910;2023-04-25T08:38:36;14.57;;;2.90;;
30307;SDS011;17114;52.314;8.910;2023-04-25T08:41:03;12.63;;;3.25;;
30307;SDS011;17114;52.314;8.910;2023-04-25T08:43:31;19.90;;;4.65;;
30307;SDS011;17114;52.314;8.910;2023-04-25T08:45:59;13.50;;;2.85;;
30307;SDS011;17114;52.314;8.910;2023-04-25T08:48:27;12.88;;;3.00;;
30307;SDS011;17114;52.314;8.910;2023-04-25T08:50:57;12.63;;;2.88;;
30307;SDS011;17114;52.314;8.910;2023-04-25T08:53:28;13.57;;;3.10;;
30307;SDS011;17114;52.314;8.910;2023-04-25T08:55:57;14.63;;;2.80;;
30307;SDS011;17114;52.314;8.910;2023-04-25T08:58:25;14.10;;;2.65;;
30307;SDS011;17114;52.314;8.910;2023-04-25T09:00:54;15.07;;;2.65;;
30307;SDS011;17114;52.314;8.910;2023-04-25T09:03:21;17.42;;;3.25;;
30307;SDS011;17114;52.314;8.910;2023-04-25T09:05:48;15.60;;;2.70;;
30307;SDS011;17114;52.314;8.910;2023-04-25T09:08:16;12.75;;;3.15;;
30307;SDS011;17114;52.314;8.910;2023-04-25T09:10:43;12.35;;;2.22;;
30307;SDS011;17114;52.314;8.910;2023-04-25T09:13:11;15.90;;;2.70;;
30307;SDS011;17114;52.314;8.910;2023-04-25T09:18:22;11.73;;;2.47;;
30307;SDS011;17114;52.314;8.910;2023-04-25T09:20:56;19.77;;;3.53;;
30307;SDS011;17114;52.314;8.910;2023-04-25T09:23:27;19.67;;;3.17;;
30307;SDS011;17114;52.314;8.910;2023-04-25T09:25:54;15.02;;;2.65;;
30307;SDS011;17114;52.314;8.910;2023-04-25T09:28:25;15.15;;;2.72;;
30307;SDS011;17114;52.314;8.910;2023-04-25T09:30:56;16.05;;;2.60;;
30307;SDS011;17114;52.314;8.910;2023-04-25T09:33:26;11.27;;;2.33;;
30307;SDS011;17114;52.314;8.910;2023-04-25T09:36:16;11.27;;;2.63;;
30307;SDS011;17114;52.314;8.910;2023-04-25T09:38:44;11.88;;;2.35;;
30307;SDS011;17114;52.314;8.910;2023-04-25T09:41:11;9.32;;;2.33;;
30307;SDS011;17114;52.314;8.910;2023-04-25T09:43:39;10.25;;;2.20;;
30307;SDS011;17114;52.314;8.910;2023-04-25T09:46:09;9.23;;;2.28;;
30307;SDS011;17114;52.314;8.910;2023-04-25T09:48:40;12.77;;;2.50;;
30307;SDS011;17114;52.314;8.910;2023-04-25T09:51:13;11.38;;;2.47;;
30307;SDS011;17114;52.314;8.910;2023-04-25T09:53:44;7.60;;;1.95;;
30307;SDS011;17114;52.314;8.910;2023-04-25T09:56:13;8.45;;;2.40;;
30307;SDS011;17114;52.314;8.910;2023-04-25T09:58:40;12.10;;;2.28;;
30307;SDS011;17114;52.314;8.910;2023-04-25T10:01:08;9.73;;;2.15;;
30307;SDS011;17114;52.314;8.910;2023-04-25T10:03:38;14.98;;;2.03;;
30307;SDS011;17114;52.314;8.910;2023-04-25T10:06:07;8.45;;;2.10;;
30307;SDS011;17114;52.314;8.910;2023-04-25T10:08:44;7.68;;;1.63;;
30307;SDS011;17114;52.314;8.910;2023-04-25T10:11:16;6.85;;;1.80;;
30307;SDS011;17114;52.314;8.910;2023-04-25T10:13:44;10.57;;;2.20;;
30307;SDS011;17114;52.314;8.910;2023-04-25T10:16:11;10.70;;;2.22;;
30307;SDS011;17114;52.314;8.910;2023-04-25T10:18:39;12.07;;;2.25;;
30307;SDS011;17114;52.314;8.910;2023-04-25T10:21:07;10.07;;;2.58;;
30307;SDS011;17114;52.314;8.910;2023-04-25T10:23:34;7.13;;;1.98;;
30307;SDS011;17114;52.314;8.910;2023-04-25T10:26:03;5.75;;;1.90;;
30307;SDS011;17114;52.314;8.910;2023-04-25T10:28:30;13.82;;;2.17;;
30307;SDS011;17114;52.314;8.910;2023-04-25T10:31:27;7.82;;;2.22;;
30307;SDS011;17114;52.314;8.910;2023-04-25T10:33:56;6.15;;;1.63;;
30307;SDS011;17114;52.314;8.910;2023-04-25T10:36:25;6.70;;;2.22;;
30307;SDS011;17114;52.314;8.910;2023-04-25T10:38:53;5.18;;;1.55;;
30307;SDS011;17114;52.314;8.910;2023-04-25T10:41:20;4.47;;;1.70;;
30307;SDS011;17114;52.314;8.910;2023-04-25T10:43:49;5.97;;;1.50;;
30307;SDS011;17114;52.314;8.910;2023-04-25T10:46:25;5.65;;;1.67;;
30307;SDS011;17114;52.314;8.910;2023-04-25T10:48:57;5.82;;;1.60;;
30307;SDS011;17114;52.314;8.910;2023-04-25T10:51:32;6.57;;;1.88;;
30307;SDS011;17114;52.314;8.910;2023-04-25T10:54:20;4.97;;;1.48;;
30307;SDS011;17114;52.314;8.910;2023-04-25T10:56:52;7.78;;;1.65;;
30307;SDS011;17114;52.314;8.910;2023-04-25T10:59:19;6.50;;;2.15;;
30307;SDS011;17114;52.314;8.910;2023-04-25T11:01:51;3.17;;;1.48;;
30307;SDS011;17114;52.314;8.910;2023-04-25T11:04:22;6.75;;;1.55;;
30307;SDS011;17114;52.314;8.910;2023-04-25T11:07:09;11.02;;;2.25;;
30307;SDS011;17114;52.314;8.910;2023-04-25T11:09:44;4.28;;;1.67;;
30307;SDS011;17114;52.314;8.910;2023-04-25T11:12:12;7.35;;;1.83;;
30307;SDS011;17114;52.314;8.910;2023-04-25T11:14:39;9.32;;;2.33;;
30307;SDS011;17114;52.314;8.910;2023-04-25T11:17:06;8.13;;;2.00;;
30307;SDS011;17114;52.314;8.910;2023-04-25T11:19:33;9.50;;;2.40;;
30307;SDS011;17114;52.314;8.910;2023-04-25T11:22:01;7.55;;;1.95;;
30307;SDS011;17114;52.314;8.910;2023-04-25T11:24:29;7.18;;;1.65;;
30307;SDS011;17114;52.314;8.910;2023-04-25T11:27:00;13.60;;;1.90;;
30307;SDS011;17114;52.314;8.910;2023-04-25T11:29:31;11.80;;;1.92;;
30307;SDS011;17114;52.314;8.910;2023-04-25T11:31:58;15.98;;;2.13;;
30307;SDS011;17114;52.314;8.910;2023-04-25T11:34:31;8.35;;;1.98;;
30307;SDS011;17114;52.314;8.910;2023-04-25T11:37:02;7.32;;;1.92;;
30307;SDS011;17114;52.314;8.910;2023-04-25T11:39:30;7.43;;;1.90;;
30307;SDS011;17114;52.314;8.910;2023-04-25T11:41:57;11.43;;;2.67;;
30307;SDS011;17114;52.314;8.910;2023-04-25T11:44:27;6.13;;;1.80;;
30307;SDS011;17114;52.314;8.910;2023-04-25T11:46:54;6.88;;;1.50;;
30307;SDS011;17114;52.314;8.910;2023-04-25T11:49:21;6.22;;;1.38;;
30307;SDS011;17114;52.314;8.910;2023-04-25T11:51:50;5.50;;;1.15;;
30307;SDS011;17114;52.314;8.910;2023-04-25T11:54:17;6.68;;;1.33;;
30307;SDS011;17114;52.314;8.910;2023-04-25T11:56:45;4.15;;;1.13;;
30307;SDS011;17114;52.314;8.910;2023-04-25T11:59:12;4.85;;;1.45;;
30307;SDS011;17114;52.314;8.910;2023-04-25T12:01:47;5.35;;;1.40;;
30307;SDS011;17114;52.314;8.910;2023-04-25T12:04:17;5.95;;;1.30;;
30307;SDS011;17114;52.314;8.910;2023-04-25T12:06:46;3.97;;;1.30;;
30307;SDS011;17114;52.314;8.910;2023-04-25T12:09:16;2.85;;;1.20;;
30307;SDS011;17114;52.314;8.910;2023-04-25T12:11:46;6.43;;;2.00;;
30307;SDS011;17114;52.314;8.910;2023-04-25T12:14:21;5.40;;;1.98;;
30307;SDS011;17114;52.314;8.910;2023-04-25T12:16:57;5.68;;;1.70;;
30307;SDS011;17114;52.314;8.910;2023-04-25T12:19:26;6.35;;;1.30;;
30307;SDS011;17114;52.314;8.910;2023-04-25T12:21:57;7.65;;;1.60;;
30307;SDS011;17114;52.314;8.910;2023-04-25T12:24:26;5.85;;;1.65;;
30307;SDS011;17114;52.314;8.910;2023-04-25T12:29:29;8.98;;;1.45;;
30307;SDS011;17114;52.314;8.910;2023-04-25T12:32:14;7.13;;;1.38;;
30307;SDS011;17114;52.314;8.910;2023-04-25T12:34:41;5.82;;;1.55;;
30307;SDS011;17114;52.314;8.910;2023-04-25T12:37:08;4.97;;;1.67;;
30307;SDS011;17114;52.314;8.910;2023-04-25T12:39:35;7.32;;;1.73;;
30307;SDS011;17114;52.314;8.910;2023-04-25T12:42:02;5.57;;;1.85;;
30307;SDS011;17114;52.314;8.910;2023-04-25T12:44:33;3.90;;;1.40;;
30307;SDS011;17114;52.314;8.910;2023-04-25T12:47:00;6.90;;;1.73;;
30307;SDS011;17114;52.314;8.910;2023-04-25T12:49:27;7.68;;;1.63;;
30307;SDS011;17114;52.314;8.910;2023-04-25T12:51:54;6.78;;;1.65;;
30307;SDS011;17114;52.314;8.910;2023-04-25T12:54:21;9.27;;;1.70;;
30307;SDS011;17114;52.314;8.910;2023-04-25T12:56:49;7.15;;;1.70;;
30307;SDS011;17114;52.314;8.910;2023-04-25T12:59:17;6.93;;;1.50;;
30307;SDS011;17114;52.314;8.910;2023-04-25T13:01:44;9.20;;;1.80;;
30307;SDS011;17114;52.314;8.910;2023-04-25T13:04:11;6.72;;;1.60;;
30307;SDS011;17114;52.314;8.910;2023-04-25T13:06:39;6.90;;;1.48;;
30307;SDS011;17114;52.314;8.910;2023-04-25T13:09:06;6.38;;;1.30;;
30307;SDS011;17114;52.314;8.910;2023-04-25T13:11:33;5.38;;;1.20;;
30307;SDS011;17114;52.314;8.910;2023-04-25T13:14:00;6.38;;;1.42;;
30307;SDS011;17114;52.314;8.910;2023-04-25T13:16:27;6.35;;;1.60;;
30307;SDS011;17114;52.314;8.910;2023-04-25T13:18:55;6.38;;;1.33;;
30307;SDS011;17114;52.314;8.910;2023-04-25T13:21:22;6.78;;;1.73;;
30307;SDS011;17114;52.314;8.910;2023-04-25T13:23:49;6.90;;;1.45;;
30307;SDS011;17114;52.314;8.910;2023-04-25T13:26:17;6.95;;;1.70;;
30307;SDS011;17114;52.314;8.910;2023-04-25T13:28:44;5.90;;;1.50;;
30307;SDS011;17114;52.314;8.910;2023-04-25T13:31:11;7.10;;;1.58;;
30307;SDS011;17114;52.314;8.910;2023-04-25T13:33:38;11.63;;;1.95;;
30307;SDS011;17114;52.314;8.910;2023-04-25T13:36:07;9.43;;;2.03;;
30307;SDS011;17114;52.314;8.910;2023-04-25T13:38:34;7.57;;;2.00;;
30307;SDS011;17114;52.314;8.910;2023-04-25T13:41:00;7.05;;;1.65;;
30307;SDS011;17114;52.314;8.910;2023-04-25T13:43:27;8.05;;;2.28;;
30307;SDS011;17114;52.314;8.910;2023-04-25T13:45:54;9.38;;;2.22;;
30307;SDS011;17114;52.314;8.910;2023-04-25T13:48:21;10.48;;;2.72;;
30307;SDS011;17114;52.314;8.910;2023-04-25T13:50:50;8.00;;;2.13;;
30307;SDS011;17114;52.314;8.910;2023-04-25T13:53:17;8.20;;;2.33;;
30307;SDS011;17114;52.314;8.910;2023-04-25T13:55:44;7.60;;;2.33;;
30307;SDS011;17114;52.314;8.910;2023-04-25T13:58:11;6.22;;;2.28;;
30307;SDS011;17114;52.314;8.910;2023-04-25T14:00:38;6.45;;;1.92;;
30307;SDS011;17114;52.314;8.910;2023-04-25T14:03:06;10.85;;;2.33;;
30307;SDS011;17114;52.314;8.910;2023-04-25T14:05:36;6.38;;;2.08;;
30307;SDS011;17114;52.314;8.910;2023-04-25T14:08:07;6.40;;;2.00;;
30307;SDS011;17114;52.314;8.910;2023-04-25T14:10:35;8.05;;;2.30;;
30307;SDS011;17114;52.314;8.910;2023-04-25T14:13:02;7.43;;;1.90;;
30307;SDS011;17114;52.314;8.910;2023-04-25T14:15:33;8.07;;;2.45;;
30307;SDS011;17114;52.314;8.910;2023-04-25T14:18:01;6.03;;;2.20;;
30307;SDS011;17114;52.314;8.910;2023-04-25T14:20:28;7.47;;;1.75;;
30307;SDS011;17114;52.314;8.910;2023-04-25T14:22:56;7.28;;;1.88;;
30307;SDS011;17114;52.314;8.910;2023-04-25T14:25:24;6.80;;;2.15;;
30307;SDS011;17114;52.314;8.910;2023-04-25T14:27:51;8.45;;;1.52;;
30307;SDS011;17114;52.314;8.910;2023-04-25T14:30:19;6.10;;;1.48;;
30307;SDS011;17114;52.314;8.910;2023-04-25T14:32:47;6.50;;;1.70;;
30307;SDS011;17114;52.314;8.910;2023-04-25T14:35:17;7.13;;;1.98;;
30307;SDS011;17114;52.314;8.910;2023-04-25T14:37:44;7.95;;;1.75;;
30307;SDS011;17114;52.314;8.910;2023-04-25T14:40:12;7.35;;;2.13;;
30307;SDS011;17114;52.314;8.910;2023-04-25T14:42:41;5.88;;;1.80;;
30307;SDS011;17114;52.314;8.910;2023-04-25T14:45:08;8.93;;;1.90;;
30307;SDS011;17114;52.314;8.910;2023-04-25T14:47:36;8.57;;;1.85;;